Time;durP1;ratioP1;P1;durP2;ratioP2;P2;SDS_P1;SDS_P2;PMS_P1;PMS_P2;Temp;Humidity;BMP_temperature;BMP_pressure;BME280_temperature;BME280_humidity;BME280_pressure;Samples;Min_cycle;Max_cycle;Signal;HPM_P1;HPM_P2
2024/01/15 00:01:30;;;;;;;13.60;9.20;;;;;;;-144.99;100.00;75736.23;107863;1261;60125;-74
2024/01/15 00:03:57;;;;;;;13.60;9.50;;;;;;;-144.99;100.00;75733.05;107847;1257;60281;-75
2024/01/15 00:06:24;;;;;;;12.50;9.50;;;;;;;-144.99;100.00;75731.08;107854;1260;72096;-74
2024/01/15 00:08:51;;;;;;;12.90;9.30;;;;;;;-144.99;100.00;75729.09;107837;1261;72552;-74
2024/01/15 00:11:17;;;;;;;15.10;9.50;;;;;;;-144.99;100.00;75726.70;107832;1259;72250;-74
2024/01/15 00:13:44;;;;;;;13.80;9.90;;;;;;;-144.99;100.00;75722.32;107809;1258;60281;-74
2024/01/15 00:16:11;;;;;;;14.30;9.90;;;;;;;-144.99;100.00;75721.13;107813;1258;60036;-74
2024/01/15 00:18:38;;;;;;;13.00;10.00;;;;;;;-144.99;100.00;75721.92;107835;1259;72781;-75
2024/01/15 00:21:05;;;;;;;14.50;9.50;;;;;;;-144.99;100.00;75718.73;107860;1258;72250;-74
2024/01/15 00:23:32;;;;;;;15.50;10.30;;;;;;;-144.99;100.00;75721.13;107810;1258;72479;-74
2024/01/15 00:25:59;;;;;;;16.80;11.20;;;;;;;-144.99;100.00;75717.55;107829;1259;60034;-75
2024/01/15 00:28:25;;;;;;;13.70;9.40;;;;;;;-144.99;100.00;75715.56;107830;1258;59504;-74
2024/01/15 00:30:52;;;;;;;15.10;10.70;;;;;;;-144.99;100.00;75711.19;107816;1260;70548;-75
2024/01/15 00:33:19;;;;;;;14.40;10.30;;;;;;;-144.99;100.00;75709.20;107855;1259;73511;-74
2024/01/15 00:35:46;;;;;;;12.90;9.90;;;;;;;-144.99;100.00;75706.02;107820;1259;72420;-74
2024/01/15 00:38:12;;;;;;;16.80;11.20;;;;;;;-144.99;100.00;75706.02;107867;1259;59670;-75
2024/01/15 00:40:39;;;;;;;15.70;10.70;;;;;;;-144.99;100.00;75707.60;107871;1260;60129;-75
2024/01/15 00:43:07;;;;;;;14.40;11.10;;;;;;;-144.99;100.00;75708.40;108351;1250;72935;-76
2024/01/15 00:45:34;;;;;;;13.20;10.10;;;;;;;-144.99;100.00;75709.20;108344;1250;73840;-75
2024/01/15 00:48:06;;;;;;;15.30;11.10;;;;;;;-144.99;100.00;75711.17;108335;1250;72584;-74
2024/01/15 00:50:37;;;;;;;16.10;10.20;;;;;;;-144.99;100.00;75713.97;108342;1250;60309;-75
2024/01/15 00:53:04;;;;;;;14.30;10.40;;;;;;;-144.99;100.00;75712.38;108343;1250;60264;-74
2024/01/15 00:55:31;;;;;;;13.40;10.00;;;;;;;-144.99;100.00;75711.19;108334;1251;71657;-74
2024/01/15 00:57:57;;;;;;;14.20;10.10;;;;;;;-144.99;100.00;75709.59;108295;1254;72361;-74
2024/01/15 01:00:24;;;;;;;14.20;10.40;;;;;;;-144.99;100.00;75702.83;108310;1250;72532;-74
2024/01/15 01:02:51;;;;;;;15.00;10.20;;;;;;;-144.99;100.00;75697.26;108309;1250;60173;-74
2024/01/15 01:05:18;;;;;;;12.60;9.50;;;;;;;-144.99;100.00;75696.48;108342;1250;60240;-74
2024/01/15 01:07:45;;;;;;;14.10;10.20;;;;;;;-144.99;100.00;75695.27;108323;1250;72997;-74
2024/01/15 01:10:12;;;;;;;15.40;10.20;;;;;;;-144.99;100.00;75691.70;108328;1250;73503;-74
2024/01/15 01:12:39;;;;;;;14.60;10.30;;;;;;;-144.99;100.00;75687.72;108309;1250;72295;-76
2024/01/15 01:15:06;;;;;;;14.20;10.20;;;;;;;-144.99;100.00;75682.15;108341;1250;60144;-74
2024/01/15 01:17:33;;;;;;;16.00;10.70;;;;;;;-144.99;100.00;75682.94;108305;1250;60529;-74
2024/01/15 01:20:00;;;;;;;16.20;10.70;;;;;;;-144.99;100.00;75684.14;108266;1254;73263;-74
2024/01/15 01:22:27;;;;;;;13.40;10.10;;;;;;;-144.99;100.00;75684.14;108351;1250;73598;-74
2024/01/15 01:24:54;;;;;;;15.70;11.00;;;;;;;-144.99;100.00;75686.52;108300;1250;71469;-75
2024/01/15 01:27:21;;;;;;;14.80;11.30;;;;;;;-144.99;100.00;75686.92;108302;1250;60978;-74
2024/01/15 01:29:48;;;;;;;13.90;10.20;;;;;;;-144.99;100.00;75686.52;108329;1250;60217;-75
2024/01/15 01:32:15;;;;;;;14.10;10.30;;;;;;;-144.99;100.00;75680.55;108331;1250;71660;-74
2024/01/15 01:34:44;;;;;;;14.20;9.80;;;;;;;-144.99;100.00;75674.59;108345;1250;73281;-74
2024/01/15 01:37:14;;;;;;;14.10;9.80;;;;;;;-144.99;100.00;75666.63;108336;1250;72359;-74
2024/01/15 01:39:42;;;;;;;15.30;11.10;;;;;;;-144.99;100.00;75659.88;108346;1250;62131;-74
2024/01/15 01:42:09;;;;;;;15.60;9.90;;;;;;;-144.99;100.00;75655.50;108449;1250;60308;-75
2024/01/15 01:44:36;;;;;;;13.60;9.80;;;;;;;-144.99;100.00;75653.11;108343;1250;72802;-74
2024/01/15 01:47:03;;;;;;;12.70;9.90;;;;;;;-144.99;100.00;75651.52;108264;1250;73465;-74
2024/01/15 01:49:30;;;;;;;14.00;10.40;;;;;;;-144.99;100.00;75648.34;108317;1250;71446;-74
2024/01/15 01:51:58;;;;;;;16.60;10.90;;;;;;;-144.99;100.00;75643.96;108337;1250;60249;-75
2024/01/15 01:54:26;;;;;;;13.50;10.00;;;;;;;-144.99;100.00;75646.36;108371;1250;60087;-74
2024/01/15 01:56:53;;;;;;;15.40;10.40;;;;;;;-144.99;100.00;75645.55;108436;1255;71458;-74
2024/01/15 01:59:20;;;;;;;14.40;9.90;;;;;;;-144.99;100.00;75645.16;108332;1250;73470;-74
2024/01/15 02:01:47;;;;;;;13.80;10.50;;;;;;;-144.99;100.00;75644.36;108423;1255;72672;-74
2024/01/15 02:04:14;;;;;;;14.00;9.70;;;;;;;-144.99;100.00;75639.59;108317;1250;60148;-74
2024/01/15 02:06:44;;;;;;;12.50;9.70;;;;;;;-144.99;100.00;75635.61;108445;1250;60728;-74
2024/01/15 02:09:10;;;;;;;14.90;10.50;;;;;;;-144.99;100.00;75635.23;108353;1250;72971;-74
2024/01/15 02:11:37;;;;;;;14.90;10.70;;;;;;;-144.99;100.00;75632.43;108301;1250;72812;-74
2024/01/15 02:14:04;;;;;;;12.20;9.90;;;;;;;-144.99;100.00;75625.67;108429;1250;72727;-75
2024/01/15 02:16:31;;;;;;;15.70;10.20;;;;;;;-144.99;100.00;75623.28;108405;1256;60222;-74
2024/01/15 02:18:58;;;;;;;14.80;10.50;;;;;;;-144.99;100.00;75618.91;108306;1250;60354;-75
2024/01/15 02:21:28;;;;;;;12.40;9.30;;;;;;;-144.99;100.00;75616.92;108327;1250;72991;-74
2024/01/15 02:23:55;;;;;;;13.30;9.90;;;;;;;-144.99;100.00;75618.52;108307;1250;73492;-76
2024/01/15 02:26:22;;;;;;;12.30;9.20;;;;;;;-144.99;100.00;75619.30;108289;1250;70561;-74
2024/01/15 02:28:48;;;;;;;14.00;9.20;;;;;;;-144.99;100.00;75614.93;108317;1250;60277;-74
2024/01/15 02:31:15;;;;;;;13.90;9.80;;;;;;;-144.99;100.00;75604.98;108345;1250;60095;-76
2024/01/15 02:33:43;;;;;;;13.50;10.00;;;;;;;-144.99;100.00;75605.79;108285;1250;72809;-76
2024/01/15 02:36:10;;;;;;;15.00;9.80;;;;;;;-144.99;100.00;75601.41;108293;1250;72021;-77
2024/01/15 02:38:37;;;;;;;15.00;10.80;;;;;;;-144.99;100.00;75603.40;108288;1250;72669;-76
2024/01/15 02:41:04;;;;;;;12.20;9.20;;;;;;;-144.99;100.00;75604.59;108321;1250;60800;-76
2024/01/15 02:43:30;;;;;;;12.40;9.50;;;;;;;-144.99;100.00;75603.00;108282;1251;60271;-74
2024/01/15 02:45:57;;;;;;;13.40;9.60;;;;;;;-144.99;100.00;75601.80;108304;1250;73227;-75
2024/01/15 02:48:24;;;;;;;13.90;9.10;;;;;;;-144.99;100.00;75601.41;108386;1250;73414;-74
2024/01/15 02:50:51;;;;;;;14.10;9.90;;;;;;;-144.99;100.00;75607.77;108295;1250;72613;-74
2024/01/15 02:53:18;;;;;;;13.20;9.90;;;;;;;-144.99;100.00;75608.57;108280;1250;60281;-75
2024/01/15 02:55:45;;;;;;;12.80;10.10;;;;;;;-144.99;100.00;75615.73;108346;1250;60240;-74
2024/01/15 02:58:12;;;;;;;12.50;9.10;;;;;;;-144.99;100.00;75618.11;108313;1255;73260;-75
2024/01/15 03:00:39;;;;;;;13.70;9.90;;;;;;;-144.99;100.00;75616.52;108314;1250;72024;-74
2024/01/15 03:03:06;;;;;;;14.80;9.80;;;;;;;-144.99;100.00;75614.14;108328;1253;72668;-75
2024/01/15 03:05:33;;;;;;;15.00;10.00;;;;;;;-144.99;100.00;75615.33;108342;1250;59997;-75
2024/01/15 03:07:59;;;;;;;15.40;10.70;;;;;;;-144.99;100.00;75609.36;108341;1250;60205;-75
2024/01/15 03:10:26;;;;;;;12.20;9.40;;;;;;;-144.99;100.00;75606.18;108330;1250;71789;-74
2024/01/15 03:12:53;;;;;;;15.20;10.10;;;;;;;-144.99;100.00;75603.00;108305;1250;73293;-75
2024/01/15 03:15:20;;;;;;;14.60;10.20;;;;;;;-144.99;100.00;75603.40;108328;1253;72411;-74
2024/01/15 03:17:47;;;;;;;13.00;9.30;;;;;;;-144.99;100.00;75599.02;108320;1250;60294;-75
2024/01/15 03:20:14;;;;;;;14.60;9.70;;;;;;;-144.99;100.00;75597.43;108373;1249;60105;-75
2024/01/15 03:22:41;;;;;;;12.30;9.50;;;;;;;-144.99;100.00;75598.63;108339;1254;73012;-76
2024/01/15 03:25:08;;;;;;;13.80;9.80;;;;;;;-144.99;100.00;75594.25;108345;1250;73330;-74
2024/01/15 03:27:34;;;;;;;13.70;9.80;;;;;;;-144.99;100.00;75592.27;108317;1251;72498;-74
2024/01/15 03:30:02;;;;;;;13.50;9.30;;;;;;;-144.99;100.00;75591.86;108307;1249;60192;-75
2024/01/15 03:32:29;;;;;;;12.50;9.60;;;;;;;-144.99;100.00;75591.47;108355;1250;60242;-74
2024/01/15 03:34:56;;;;;;;15.70;9.90;;;;;;;-144.99;100.00;75596.63;108305;1254;72947;-75
2024/01/15 03:37:23;;;;;;;12.20;9.20;;;;;;;-144.99;100.00;75596.64;108330;1253;72303;-74
2024/01/15 03:39:50;;;;;;;14.50;10.00;;;;;;;-144.99;100.00;75599.02;108309;1254;72617;-75
2024/01/15 03:42:17;;;;;;;12.60;9.20;;;;;;;-144.99;100.00;75594.65;108308;1250;60415;-75
2024/01/15 03:44:43;;;;;;;14.50;9.70;;;;;;;-144.99;100.00;75594.25;108328;1249;60188;-74
2024/01/15 03:47:10;;;;;;;13.60;9.80;;;;;;;-144.99;100.00;75591.86;108359;1250;73746;-74
2024/01/15 03:49:37;;;;;;;12.70;9.40;;;;;;;-144.99;100.00;75586.69;108344;1250;73648;-74
2024/01/15 03:52:04;;;;;;;11.90;9.30;;;;;;;-144.99;100.00;75587.49;108314;1254;72542;-76
2024/01/15 03:54:31;;;;;;;13.40;9.70;;;;;;;-144.99;100.00;75584.71;108342;1251;60405;-77
2024/01/15 03:56:58;;;;;;;15.40;9.90;;;;;;;-144.99;100.00;75578.73;108313;1253;60514;-74
2024/01/15 03:59:24;;;;;;;14.80;9.60;;;;;;;-144.99;100.00;75581.52;108352;1250;73615;-74
2024/01/15 04:01:51;;;;;;;14.20;9.40;;;;;;;-144.99;100.00;75577.94;108327;1250;73483;-75
2024/01/15 04:04:18;;;;;;;13.70;9.50;;;;;;;-144.99;100.00;75578.34;108291;1251;70160;-75
2024/01/15 04:06:46;;;;;;;13.70;9.40;;;;;;;-144.99;100.00;75581.52;108357;1250;60348;-75
2024/01/15 04:09:13;;;;;;;14.40;9.40;;;;;;;-144.99;100.00;75576.36;108327;1249;60178;-75
2024/01/15 04:11:40;;;;;;;11.90;8.90;;;;;;;-144.99;100.00;75572.38;108320;1250;71404;-75
2024/01/15 04:14:07;;;;;;;12.40;9.10;;;;;;;-144.99;100.00;75571.98;108301;1250;72033;-75
2024/01/15 04:16:34;;;;;;;13.60;9.30;;;;;;;-144.99;100.00;75570.79;108338;1250;72447;-75
2024/01/15 04:19:00;;;;;;;15.10;9.60;;;;;;;-144.99;100.00;75566.02;108316;1250;60397;-75
2024/01/15 04:21:28;;;;;;;11.40;8.60;;;;;;;-144.99;100.00;75562.83;108377;1251;61181;-75
2024/01/15 04:23:55;;;;;;;13.70;9.30;;;;;;;-144.99;100.00;75562.03;108288;1255;72568;-76
2024/01/15 04:26:22;;;;;;;14.00;9.70;;;;;;;-144.99;100.00;75563.63;108263;1250;73790;-76
2024/01/15 04:28:48;;;;;;;14.90;10.50;;;;;;;-144.99;100.00;75562.44;108277;1254;72635;-75
2024/01/15 04:31:26;;;;;;;14.30;10.40;;;;;;;-144.99;100.00;75562.83;108342;1250;60272;-74
2024/01/15 04:33:53;;;;;;;13.30;9.20;;;;;;;-144.99;100.00;75560.05;108346;1250;60379;-75
2024/01/15 04:36:20;;;;;;;13.50;9.70;;;;;;;-144.99;100.00;75560.84;108354;1250;73712;-76
2024/01/15 04:38:47;;;;;;;14.30;9.70;;;;;;;-144.99;100.00;75558.85;108363;1250;73337;-75
2024/01/15 04:41:14;;;;;;;15.90;9.50;;;;;;;-144.99;100.00;75560.05;108272;1250;71669;-75
2024/01/15 04:43:41;;;;;;;14.00;9.30;;;;;;;-144.99;100.00;75550.90;108441;1251;60994;-75
2024/01/15 04:46:08;;;;;;;12.80;8.80;;;;;;;-144.99;100.00;75543.34;108353;1254;60319;-75
2024/01/15 04:48:35;;;;;;;12.50;9.30;;;;;;;-144.99;100.00;75529.03;108362;1250;73687;-75
2024/01/15 04:51:05;;;;;;;12.20;9.70;;;;;;;-144.99;100.00;75530.23;108345;1250;73211;-75
2024/01/15 04:53:34;;;;;;;12.40;9.10;;;;;;;-144.99;100.00;75530.61;108364;1250;72495;-75
2024/01/15 04:56:01;;;;;;;16.60;10.80;;;;;;;-144.99;100.00;75529.82;108308;1250;60949;-75
2024/01/15 04:58:27;;;;;;;11.50;8.80;;;;;;;-144.99;100.00;75530.22;108333;1250;60272;-75
2024/01/15 05:00:54;;;;;;;12.40;8.90;;;;;;;-144.99;100.00;75528.23;108343;1250;73767;-74
2024/01/15 05:03:21;;;;;;;12.00;9.30;;;;;;;-144.99;100.00;75522.66;108352;1250;73639;-75
2024/01/15 05:05:49;;;;;;;12.40;9.00;;;;;;;-144.99;100.00;75517.89;108353;1250;72416;-75
2024/01/15 05:08:16;;;;;;;14.00;9.60;;;;;;;-144.99;100.00;75519.08;108322;1250;61129;-75
2024/01/15 05:10:43;;;;;;;15.00;9.80;;;;;;;-144.99;100.00;75523.85;108347;1250;60380;-75
2024/01/15 05:13:10;;;;;;;15.60;10.80;;;;;;;-144.99;100.00;75527.44;108340;1251;73564;-75
2024/01/15 05:15:37;;;;;;;15.00;11.30;;;;;;;-144.99;100.00;75522.66;108338;1253;73621;-76
2024/01/15 05:18:04;;;;;;;13.00;9.70;;;;;;;-144.99;100.00;75513.12;108328;1250;72513;-76
2024/01/15 05:20:31;;;;;;;14.00;9.40;;;;;;;-144.99;100.00;75508.73;108377;1252;60408;-76
2024/01/15 05:22:58;;;;;;;11.80;8.80;;;;;;;-144.99;100.00;75509.94;108294;1254;60277;-76
2024/01/15 05:25:24;;;;;;;12.10;9.10;;;;;;;-144.99;100.00;75508.35;108359;1250;73738;-76
2024/01/15 05:27:51;;;;;;;15.20;8.80;;;;;;;-144.99;100.00;75511.92;108372;1251;72050;-76
2024/01/15 05:30:18;;;;;;;12.00;8.40;;;;;;;-144.99;100.00;75512.32;108377;1250;72688;-76
2024/01/15 05:32:45;;;;;;;11.50;8.20;;;;;;;-144.99;100.00;75514.70;108373;1250;60396;-76
2024/01/15 05:35:12;;;;;;;12.80;9.30;;;;;;;-144.99;100.00;75513.91;108359;1250;60390;-76
2024/01/15 05:37:43;;;;;;;12.20;8.80;;;;;;;-144.99;100.00;75517.89;108362;1250;73676;-76
2024/01/15 05:40:11;;;;;;;11.30;7.80;;;;;;;-144.99;100.00;75517.48;108369;1250;73448;-76
2024/01/15 05:42:39;;;;;;;11.30;8.30;;;;;;;-144.99;100.00;75513.12;108374;1250;72688;-76
2024/01/15 05:45:06;;;;;;;14.40;9.60;;;;;;;-144.99;100.00;75510.33;108333;1251;60432;-76
2024/01/15 05:47:33;;;;;;;12.80;8.80;;;;;;;-144.99;100.00;75513.52;108310;1250;60295;-76
2024/01/15 05:50:01;;;;;;;15.00;10.10;;;;;;;-144.99;100.00;75516.70;108336;1250;73788;-76
2024/01/15 05:52:28;;;;;;;14.70;9.50;;;;;;;-144.99;100.00;75513.91;108364;1251;73493;-77
2024/01/15 05:54:55;;;;;;;13.60;9.20;;;;;;;-144.99;100.00;75515.10;108329;1250;71444;-77
2024/01/15 05:57:22;;;;;;;12.30;8.90;;;;;;;-144.99;100.00;75517.89;108364;1253;60979;-77
2024/01/15 05:59:49;;;;;;;11.90;9.00;;;;;;;-144.99;100.00;75513.91;108369;1250;60419;-76
2024/01/15 06:02:16;;;;;;;13.60;8.50;;;;;;;-144.99;100.00;75517.89;108346;1250;73761;-75
2024/01/15 06:04:43;;;;;;;12.50;8.90;;;;;;;-144.99;100.00;75513.11;108340;1250;73453;-76
2024/01/15 06:07:09;;;;;;;13.70;9.40;;;;;;;-144.99;100.00;75513.11;108416;1250;71297;-76
2024/01/15 06:09:38;;;;;;;13.40;9.00;;;;;;;-144.99;100.00;75510.73;108304;1251;60985;-77
2024/01/15 06:12:07;;;;;;;11.80;8.30;;;;;;;-144.99;100.00;75508.35;108291;1253;60429;-76
2024/01/15 06:14:35;;;;;;;12.70;8.30;;;;;;;-144.99;100.00;75509.54;108348;1253;72554;-77
2024/01/15 06:17:02;;;;;;;12.00;8.50;;;;;;;-144.99;100.00;75505.16;108131;1253;73825;-77
2024/01/15 06:19:29;;;;;;;11.60;8.30;;;;;;;-144.99;100.00;75507.95;108136;1251;72036;-76
2024/01/15 06:21:57;;;;;;;11.70;8.50;;;;;;;-144.99;100.00;75504.77;107984;1250;60163;-77
2024/01/15 06:24:24;;;;;;;72.60;41.70;;;;;;;-144.99;100.00;75505.16;107962;1250;60551;-78
2024/01/15 06:26:51;;;;;;;18.60;11.20;;;;;;;-144.99;100.00;75497.20;108198;1250;72402;-78
2024/01/15 06:29:18;;;;;;;12.10;8.40;;;;;;;-144.99;100.00;75489.65;108304;1250;73534;-78
2024/01/15 06:31:45;;;;;;;11.20;7.90;;;;;;;-144.99;100.00;75488.45;108298;1250;72757;-77
2024/01/15 06:34:12;;;;;;;11.40;7.80;;;;;;;-144.99;99.95;75483.69;108207;1250;60420;-78
2024/01/15 06:36:40;;;;;;;9.80;7.00;;;;;;;-144.99;99.73;75484.48;108315;1253;60495;-78
2024/01/15 06:39:07;;;;;;;11.20;8.10;;;;;;;-144.99;99.95;75481.70;108325;1254;72639;-76
2024/01/15 06:41:34;;;;;;;9.70;6.70;;;;;;;-144.99;99.96;75477.72;108336;1253;72018;-76
2024/01/15 06:44:01;;;;;;;10.40;8.10;;;;;;;-144.99;100.00;75472.95;108404;1250;72409;-77
2024/01/15 06:46:28;;;;;;;9.40;6.50;;;;;;;-144.99;100.00;75478.13;108403;1250;60306;-77
2024/01/15 06:48:55;;;;;;;9.30;6.90;;;;;;;-144.99;100.00;75474.14;108375;1253;60780;-77
2024/01/15 06:51:22;;;;;;;9.90;7.00;;;;;;;-144.99;100.00;75468.17;108333;1251;73876;-78
2024/01/15 06:53:48;;;;;;;9.70;7.20;;;;;;;-144.99;100.00;75469.36;108327;1250;73393;-77
2024/01/15 06:56:15;;;;;;;18.50;12.10;;;;;;;-144.99;100.00;75465.39;108160;1249;71688;-78
2024/01/15 06:58:42;;;;;;;12.90;8.80;;;;;;;-144.99;100.00;75468.57;108174;1250;60306;-76
2024/01/15 07:01:11;;;;;;;10.60;7.70;;;;;;;-144.99;100.00;75468.98;108360;1251;60344;-76
2024/01/15 07:03:38;;;;;;;10.80;7.40;;;;;;;-144.99;100.00;75465.39;108291;1254;74051;-77
2024/01/15 07:06:06;;;;;;;10.70;7.10;;;;;;;-144.99;100.00;75461.41;108259;1255;72281;-77
2024/01/15 07:08:33;;;;;;;9.10;6.90;;;;;;;-144.99;100.00;75460.22;108236;1250;72690;-76
2024/01/15 07:11:03;;;;;;;10.20;6.70;;;;;;;-144.99;100.00;75460.22;108384;1251;60344;-76
2024/01/15 07:13:30;;;;;;;10.20;6.70;;;;;;;-144.99;100.00;75456.64;108313;1250;60329;-76
2024/01/15 07:15:57;;;;;;;11.00;7.50;;;;;;;-144.99;100.00;75459.42;108194;1250;72753;-76
2024/01/15 07:18:25;;;;;;;13.40;8.70;;;;;;;-144.99;100.00;75460.22;108275;1254;74633;-76
2024/01/15 07:20:56;;;;;;;12.10;8.50;;;;;;;-144.99;100.00;75459.42;108317;1253;73493;-76
2024/01/15 07:23:23;;;;;;;11.40;7.30;;;;;;;-144.99;100.00;75459.42;108224;1253;60279;-75
2024/01/15 07:25:50;;;;;;;10.00;7.40;;;;;;;-144.99;100.00;75458.63;108194;1253;60303;-77
2024/01/15 07:28:17;;;;;;;11.40;7.80;;;;;;;-144.99;100.00;75455.85;108255;1251;72723;-76
2024/01/15 07:30:44;;;;;;;12.30;8.30;;;;;;;-144.99;100.00;75446.30;108261;1253;73689;-76
2024/01/15 07:33:12;;;;;;;9.20;7.00;;;;;;;-144.99;100.00;75441.13;108347;1252;73017;-76
2024/01/15 07:35:39;;;;;;;10.40;7.80;;;;;;;-144.99;100.00;75435.56;108319;1255;60872;-76
2024/01/15 07:38:06;;;;;;;8.30;6.30;;;;;;;-144.99;100.00;75433.17;108210;1253;60334;-76
2024/01/15 07:40:33;;;;;;;9.70;6.90;;;;;;;-144.99;100.00;75427.21;108312;1249;73773;-76
2024/01/15 07:43:00;;;;;;;8.70;6.40;;;;;;;-144.99;100.00;75428.80;108349;1254;73317;-77
2024/01/15 07:45:27;;;;;;;8.80;6.60;;;;;;;-144.99;100.00;75430.40;108256;1252;71489;-78
2024/01/15 07:47:54;;;;;;;8.20;6.60;;;;;;;-144.99;100.00;75426.42;108214;1251;61079;-76
2024/01/15 07:50:21;;;;;;;7.80;6.00;;;;;;;-144.99;100.00;75423.23;108284;1251;60157;-75
2024/01/15 07:52:48;;;;;;;8.00;6.20;;;;;;;-144.99;100.00;75425.61;108275;1254;73395;-77
2024/01/15 07:55:15;;;;;;;9.20;6.60;;;;;;;-144.99;100.00;75422.84;108303;1253;74275;-75
2024/01/15 07:57:48;;;;;;;8.60;6.50;;;;;;;-144.99;100.00;75416.48;108301;1251;71617;-77
2024/01/15 08:00:29;;;;;;;9.50;6.60;;;;;;;-144.99;100.00;75411.70;108342;1256;60415;-78
2024/01/15 08:02:59;;;;;;;8.10;6.00;;;;;;;-144.99;100.00;75406.92;108341;1250;63426;-77
2024/01/15 08:05:26;;;;;;;9.60;6.60;;;;;;;-144.99;100.00;75400.96;108146;1251;74828;-77
2024/01/15 08:08:03;;;;;;;9.10;6.90;;;;;;;-144.99;100.00;75394.20;108084;1253;73606;-80
2024/01/15 08:10:30;;;;;;;9.20;6.50;;;;;;;-144.99;100.00;75389.83;108229;1250;72387;-77
2024/01/15 08:12:57;;;;;;;8.80;6.70;;;;;;;-144.99;100.00;75388.23;108288;1250;61111;-77
2024/01/15 08:15:25;;;;;;;11.00;6.80;;;;;;;-144.99;100.00;75388.23;108245;1251;60307;-76
2024/01/15 08:17:58;;;;;;;9.90;6.60;;;;;;;-144.99;100.00;75391.02;108236;1251;72935;-75
2024/01/15 08:20:25;;;;;;;8.30;6.30;;;;;;;-144.99;100.00;75392.21;108211;1253;72930;-75
2024/01/15 08:22:53;;;;;;;8.30;6.40;;;;;;;-144.99;100.00;75388.23;108297;1253;72621;-77
2024/01/15 08:25:20;;;;;;;8.70;6.70;;;;;;;-144.99;100.00;75385.45;108285;1253;61212;-75
2024/01/15 08:27:46;;;;;;;9.30;6.90;;;;;;;-144.99;100.00;75383.06;108349;1253;60274;-75
2024/01/15 08:30:14;;;;;;;9.70;7.40;;;;;;;-144.99;100.00;75377.10;108348;1250;73827;-74
2024/01/15 08:32:42;;;;;;;8.70;7.10;;;;;;;-144.99;100.00;75368.35;108244;1251;72714;-74
2024/01/15 08:35:09;;;;;;;10.90;8.60;;;;;;;-144.99;100.00;75364.38;108260;1253;71225;-76
2024/01/15 08:37:38;;;;;;;8.10;6.30;;;;;;;-144.99;100.00;75362.38;108270;1253;60296;-76
2024/01/15 08:40:05;;;;;;;7.80;6.60;;;;;;;-144.99;100.00;75356.81;108344;1254;60312;-76
2024/01/15 08:42:33;;;;;;;11.60;7.30;;;;;;;-144.99;100.00;75346.48;108279;1250;74099;-76
2024/01/15 08:45:01;;;;;;;10.30;7.40;;;;;;;-144.99;100.00;75340.11;108298;1253;74477;-76
2024/01/15 08:47:28;;;;;;;10.00;6.40;;;;;;;-144.99;99.97;75331.77;108127;1254;72349;-75
2024/01/15 08:49:55;;;;;;;8.20;6.10;;;;;;;-144.99;99.05;75324.60;108264;1255;61909;-76
2024/01/15 08:52:23;;;;;;;9.40;6.40;;;;;;;-144.99;97.54;75321.82;108315;1251;60311;-75
2024/01/15 08:54:50;;;;;;;7.50;5.80;;;;;;;-144.99;96.80;75316.25;108275;1251;73552;-75
2024/01/15 08:57:17;;;;;;;8.40;5.70;;;;;;;-144.99;96.43;75311.88;108240;1253;72141;-75
2024/01/15 08:59:45;;;;;;;8.40;5.90;;;;;;;-144.99;95.72;75306.31;108360;1254;70498;-76
2024/01/15 09:02:12;;;;;;;19.80;13.30;;;;;;;-144.99;95.20;75295.97;108235;1251;60303;-76
2024/01/15 09:04:41;;;;;;;7.90;6.00;;;;;;;-144.99;94.24;75291.99;108329;1251;60757;-75
2024/01/15 09:07:08;;;;;;;8.10;6.00;;;;;;;-144.99;93.63;75281.65;108345;1250;73774;-75
2024/01/15 09:09:36;;;;;;;8.90;6.00;;;;;;;-144.99;93.74;75276.48;108338;1253;72503;-75
2024/01/15 09:12:04;;;;;;;8.00;6.20;;;;;;;-144.99;93.13;75263.76;108420;1249;71881;-75
2024/01/15 09:14:31;;;;;;;7.90;6.00;;;;;;;-144.99;92.71;75260.58;108252;1251;60091;-76
2024/01/15 09:17:04;;;;;;;6.90;5.00;;;;;;;-144.99;92.36;75258.59;108276;1250;60280;-75
2024/01/15 09:19:31;;;;;;;7.20;5.20;;;;;;;-144.99;91.70;75257.39;108341;1249;73928;-76
2024/01/15 09:21:58;;;;;;;8.10;5.80;;;;;;;-144.99;91.73;75252.22;108385;1253;73433;-76
2024/01/15 09:24:25;;;;;;;8.70;6.10;;;;;;;-144.99;91.43;75250.23;108331;1251;71724;-77
2024/01/15 09:26:55;;;;;;;7.30;5.40;;;;;;;-144.99;91.64;75241.09;108206;1251;61090;-74
2024/01/15 09:29:23;;;;;;;5.80;4.70;;;;;;;-144.99;91.16;75222.40;108378;1250;60295;-75
2024/01/15 09:31:56;;;;;;;6.90;5.40;;;;;;;-144.99;90.28;75208.08;108234;1251;74623;-75
2024/01/15 09:34:24;;;;;;;8.90;6.00;;;;;;;-144.99;89.73;75200.52;108351;1252;73347;-75
2024/01/15 09:36:51;;;;;;;7.20;5.50;;;;;;;-144.99;89.10;75196.95;108303;1251;73441;-76
2024/01/15 09:39:18;;;;;;;8.50;5.60;;;;;;;-144.99;88.85;75193.36;108219;1251;61521;-76
2024/01/15 09:41:45;;;;;;;6.80;5.20;;;;;;;-144.99;89.17;75197.74;108314;1250;60670;-74
2024/01/15 09:44:13;;;;;;;7.10;4.70;;;;;;;-144.99;89.52;75200.13;108233;1254;72728;-75
2024/01/15 09:46:44;;;;;;;6.60;4.80;;;;;;;-144.99;89.70;75204.50;108343;1251;74000;-76
2024/01/15 09:49:14;;;;;;;6.90;5.50;;;;;;;-144.99;90.38;75207.69;108317;1251;72666;-75
2024/01/15 09:51:42;;;;;;;6.40;4.90;;;;;;;-144.99;90.74;75204.11;108328;1253;60878;-75
2024/01/15 09:54:09;;;;;;;8.50;5.30;;;;;;;-144.99;91.43;75220.02;108337;1251;60090;-77
2024/01/15 09:56:36;;;;;;;8.30;6.10;;;;;;;-144.99;92.88;75239.89;108430;1251;72788;-75
2024/01/15 09:59:06;;;;;;;8.70;6.20;;;;;;;-144.99;95.36;75256.20;108242;1251;72675;-77
2024/01/15 10:01:33;;;;;;;8.00;5.50;;;;;;;-144.99;97.11;75262.56;108330;1253;71820;-77
2024/01/15 10:04:00;;;;;;;8.40;6.40;;;;;;;-144.99;97.48;75272.90;108395;1251;61450;-76
2024/01/15 10:06:28;;;;;;;8.20;5.90;;;;;;;-144.99;98.07;75276.09;108304;1250;60374;-77
2024/01/15 10:08:55;;;;;;;8.70;5.70;;;;;;;-144.99;98.06;75270.13;108396;1250;72598;-77
2024/01/15 10:11:22;;;;;;;10.30;6.40;;;;;;;-144.99;97.97;75267.73;108346;1251;72411;-76
2024/01/15 10:13:53;;;;;;;9.40;6.30;;;;;;;-144.99;98.37;75258.59;108330;1251;71446;-76
2024/01/15 10:16:23;;;;;;;8.10;5.90;;;;;;;-144.99;98.64;75249.84;108425;1251;61088;-76
2024/01/15 10:18:50;;;;;;;8.30;6.20;;;;;;;-144.99;98.58;75235.52;108421;1250;60154;-75
2024/01/15 10:21:17;;;;;;;6.30;4.80;;;;;;;-144.99;98.19;75217.23;108230;1257;73737;-75
2024/01/15 10:23:45;;;;;;;7.60;5.90;;;;;;;-144.99;97.80;75199.73;108332;1250;75313;-74
2024/01/15 10:26:12;;;;;;;8.80;5.60;;;;;;;-144.99;97.79;75194.95;108262;1250;70870;-76
2024/01/15 10:28:40;;;;;;;7.20;5.30;;;;;;;-144.99;97.31;75185.02;108209;1251;61157;-76
2024/01/15 10:31:08;;;;;;;7.10;5.60;;;;;;;-144.99;97.19;75181.44;108247;1251;60280;-74
2024/01/15 10:33:38;;;;;;;7.30;5.70;;;;;;;-144.99;96.64;75175.47;108322;1251;71704;-75
2024/01/15 10:36:05;;;;;;;25.00;16.60;;;;;;;-144.99;96.57;75180.24;108149;1251;74449;-75
2024/01/15 10:38:32;;;;;;;6.80;5.40;;;;;;;-144.99;96.94;75181.04;108235;1256;72674;-76
2024/01/15 10:40:59;;;;;;;6.30;5.40;;;;;;;-144.99;97.05;75178.26;108212;1249;60170;-77
2024/01/15 10:43:26;;;;;;;6.60;5.00;;;;;;;-144.99;96.78;75176.27;108151;1251;60172;-77
2024/01/15 10:45:58;;;;;;;7.00;5.40;;;;;;;-144.99;96.60;75180.23;108221;1251;73537;-75
2024/01/15 10:48:28;;;;;;;6.80;4.90;;;;;;;-144.99;96.64;75187.80;108415;1250;72563;-77
2024/01/15 10:50:55;;;;;;;6.50;4.90;;;;;;;-144.99;97.06;75192.97;108446;1251;71660;-77
2024/01/15 10:53:22;;;;;;;6.40;4.80;;;;;;;-144.99;96.84;75197.74;108304;1251;60300;-75
2024/01/15 10:55:49;;;;;;;6.80;5.40;;;;;;;-144.99;97.20;75203.30;108344;1251;59663;-77
2024/01/15 10:58:17;;;;;;;7.20;5.90;;;;;;;-144.99;97.33;75198.54;108376;1250;74151;-76